Time;durP1;ratioP1;P1;durP2;ratioP2;P2;SDS_P1;SDS_P2;PMS_P1;PMS_P2;Temp;Humidity;BMP_temperature;BMP_pressure;BME280_temperature;BME280_humidity;BME280_pressure;Samples;Min_cycle;Max_cycle;Signal;HPM_P1;HPM_P2
2023/11/29 00:00:50;;;;;;;6.95;4.00;;;;;;;5.22;60.08;100359.16;4945516;28;114065;-80
2023/11/29 00:03:17;;;;;;;11.73;4.20;;;;;;;5.23;60.41;100361.69;4923747;28;113016;-79
2023/11/29 00:05:44;;;;;;;13.23;4.40;;;;;;;5.25;60.20;100349.41;4924890;28;123118;-80
2023/11/29 00:08:12;;;;;;;8.70;3.85;;;;;;;5.29;60.02;100338.78;4927836;28;123368;-80
2023/11/29 00:10:39;;;;;;;8.65;4.05;;;;;;;5.30;60.05;100340.53;4922704;28;113794;-80
2023/11/29 00:13:07;;;;;;;7.30;3.78;;;;;;;5.31;60.29;100342.22;4927305;28;113548;-80
2023/11/29 00:15:34;;;;;;;8.25;4.05;;;;;;;5.30;59.98;100336.13;4924117;28;124261;-79
2023/11/29 00:18:01;;;;;;;10.48;4.47;;;;;;;5.30;60.20;100330.03;4937227;28;122752;-80
2023/11/29 00:20:30;;;;;;;8.60;4.15;;;;;;;5.31;60.22;100332.59;4929026;28;113422;-80
2023/11/29 00:22:57;;;;;;;10.10;4.47;;;;;;;5.31;60.12;100321.22;4942241;28;112001;-80
2023/11/29 00:25:25;;;;;;;9.55;4.25;;;;;;;5.32;60.19;100328.22;4927053;28;122575;-80
2023/11/29 00:27:52;;;;;;;11.43;4.18;;;;;;;5.30;60.06;100325.63;4931608;28;124129;-80
2023/11/29 00:30:20;;;;;;;11.00;3.97;;;;;;;5.31;60.10;100326.47;4927798;28;116321;-80
2023/11/29 00:32:47;;;;;;;7.15;3.92;;;;;;;5.31;60.11;100337.84;4908151;28;114525;-80
2023/11/29 00:35:17;;;;;;;9.48;4.45;;;;;;;5.31;60.21;100357.97;4925242;28;122456;-80
2023/11/29 00:37:45;;;;;;;8.63;3.78;;;;;;;5.29;59.96;100365.06;4930651;28;122250;-80
2023/11/29 00:40:12;;;;;;;9.43;4.30;;;;;;;5.26;59.91;100360.78;4932605;28;114374;-80
2023/11/29 00:42:41;;;;;;;12.65;4.43;;;;;;;5.24;60.16;100380.97;4929648;28;114323;-80
2023/11/29 00:45:09;;;;;;;11.50;4.45;;;;;;;5.22;60.40;100370.50;4933041;28;124190;-79
2023/11/29 00:47:36;;;;;;;12.02;4.43;;;;;;;5.21;60.20;100358.25;4930128;28;122705;-80
2023/11/29 00:50:04;;;;;;;9.25;4.72;;;;;;;5.22;60.28;100370.50;4924623;28;114328;-80
2023/11/29 00:52:31;;;;;;;9.05;4.00;;;;;;;5.23;60.28;100360.84;4925922;28;112582;-80
2023/11/29 00:54:58;;;;;;;11.88;4.93;;;;;;;5.25;60.21;100349.41;4933920;28;124021;-80
2023/11/29 00:57:26;;;;;;;10.95;5.07;;;;;;;5.28;60.39;100352.84;4944543;28;123200;-80
2023/11/29 00:59:53;;;;;;;7.55;4.53;;;;;;;5.26;60.24;100343.25;4937297;28;113294;-79
2023/11/29 01:02:20;;;;;;;8.63;5.13;;;;;;;5.29;60.41;100344.06;4939185;28;112441;-80
2023/11/29 01:04:48;;;;;;;9.93;4.78;;;;;;;5.29;60.51;100338.78;4945163;28;122099;-80
2023/11/29 01:07:15;;;;;;;11.50;5.03;;;;;;;5.30;60.35;100330.03;4922698;28;124109;-80
2023/11/29 01:09:42;;;;;;;10.88;5.53;;;;;;;5.26;60.23;100330.13;4909791;28;112448;-80
2023/11/29 01:12:10;;;;;;;8.45;4.65;;;;;;;5.29;60.07;100318.66;4928198;28;113276;-80
2023/11/29 01:14:37;;;;;;;8.00;4.60;;;;;;;5.25;60.27;100328.41;4927316;28;123948;-80
2023/11/29 01:17:04;;;;;;;7.70;4.68;;;;;;;5.24;60.45;100310.06;4914242;28;121771;-80
2023/11/29 01:19:31;;;;;;;9.52;5.18;;;;;;;5.21;60.36;100304.91;4939990;28;114880;-77
2023/11/29 01:21:59;;;;;;;8.70;4.55;;;;;;;5.18;60.13;100310.25;4926703;28;115293;-80
2023/11/29 01:24:27;;;;;;;9.48;5.30;;;;;;;5.13;60.31;100297.28;4904054;28;123385;-78
2023/11/29 01:26:54;;;;;;;11.95;5.15;;;;;;;5.11;60.08;100293.00;4926798;28;123289;-78
2023/11/29 01:29:22;;;;;;;14.43;4.45;;;;;;;5.05;60.21;100299.28;4926559;28;113925;-78
2023/11/29 01:31:50;;;;;;;8.20;4.82;;;;;;;5.02;60.44;100302.00;4928178;28;115361;-78
2023/11/29 01:34:17;;;;;;;11.43;5.03;;;;;;;4.99;60.41;100305.59;4930408;28;123464;-78
2023/11/29 01:36:44;;;;;;;8.20;4.47;;;;;;;4.95;60.51;100297.84;4933835;28;124549;-78
2023/11/29 01:39:14;;;;;;;9.55;4.72;;;;;;;4.93;60.27;100294.41;4928962;28;114991;-80
2023/11/29 01:41:42;;;;;;;8.48;4.75;;;;;;;4.91;60.43;100302.31;4932179;28;114281;-77
2023/11/29 01:44:09;;;;;;;8.15;4.93;;;;;;;4.90;60.40;100294.50;4925977;28;124322;-77
2023/11/29 01:46:37;;;;;;;8.13;4.82;;;;;;;4.87;60.42;100285.81;4939427;28;123811;-77
2023/11/29 01:49:05;;;;;;;8.75;4.63;;;;;;;4.87;60.46;100279.72;4937810;28;113529;-77
2023/11/29 01:51:33;;;;;;;8.65;5.15;;;;;;;4.85;60.60;100282.38;4927763;28;113893;-77
2023/11/29 01:54:03;;;;;;;8.38;5.13;;;;;;;4.84;60.59;100280.69;4938924;28;123009;-79
2023/11/29 01:56:30;;;;;;;8.40;4.72;;;;;;;4.83;60.64;100268.44;4947254;28;123933;-76
2023/11/29 01:58:57;;;;;;;7.80;4.90;;;;;;;4.79;60.47;100245.00;4927319;28;114210;-75
2023/11/29 02:01:24;;;;;;;8.90;5.07;;;;;;;4.78;60.68;100238.03;4938556;28;113698;-76
2023/11/29 02:03:52;;;;;;;10.73;5.32;;;;;;;4.74;60.83;100226.75;4942812;28;124111;-76
2023/11/29 02:06:20;;;;;;;10.73;5.65;;;;;;;4.73;60.90;100219.81;4942958;28;123228;-76
2023/11/29 02:08:48;;;;;;;9.15;5.13;;;;;;;4.73;61.07;100230.31;4927454;28;114275;-76
2023/11/29 02:11:17;;;;;;;8.50;5.03;;;;;;;4.72;60.80;100225.09;4945205;28;114410;-76
2023/11/29 02:13:45;;;;;;;8.40;4.78;;;;;;;4.71;61.16;100190.16;4920417;28;124060;-76
2023/11/29 02:16:12;;;;;;;7.40;4.78;;;;;;;4.70;61.11;100183.19;4939534;28;124096;-76
2023/11/29 02:18:39;;;;;;;7.15;4.72;;;;;;;4.69;61.06;100176.22;4943234;28;113479;-77
2023/11/29 02:21:09;;;;;;;6.80;4.00;;;;;;;4.70;61.07;100177.94;4923393;28;113815;-76
2023/11/29 02:23:52;;;;;;;7.18;4.57;;;;;;;4.72;60.88;100181.34;4935859;28;124033;-76
2023/11/29 02:26:19;;;;;;;8.48;5.38;;;;;;;4.72;61.35;100181.34;4963612;28;122205;-75
2023/11/29 02:28:46;;;;;;;8.00;5.18;;;;;;;4.73;61.12;100183.09;4945727;28;112515;-76
2023/11/29 02:31:14;;;;;;;9.88;5.35;;;;;;;4.73;61.31;100177.84;4928264;28;113279;-76
2023/11/29 02:33:41;;;;;;;6.72;4.72;;;;;;;4.75;61.11;100178.66;4946082;28;124356;-77
2023/11/29 02:36:08;;;;;;;11.18;5.70;;;;;;;4.75;60.95;100168.16;4922707;28;123104;-76
2023/11/29 02:38:35;;;;;;;11.20;5.82;;;;;;;4.74;61.02;100168.19;4924214;28;114928;-77
2023/11/29 02:41:03;;;;;;;9.18;5.68;;;;;;;4.75;61.42;100181.28;4927823;28;113487;-77
2023/11/29 02:43:30;;;;;;;9.90;6.15;;;;;;;4.73;61.36;100183.09;4923992;28;123688;-77
2023/11/29 02:45:57;;;;;;;10.77;6.00;;;;;;;4.74;61.39;100204.94;4944387;28;123350;-77
2023/11/29 02:48:24;;;;;;;9.95;6.00;;;;;;;4.73;61.07;100197.94;4939885;28;113744;-77
2023/11/29 02:50:51;;;;;;;11.00;5.68;;;;;;;4.75;61.52;100191.78;4941149;28;112422;-77
2023/11/29 02:53:19;;;;;;;8.65;5.35;;;;;;;4.76;61.47;100187.38;4940028;28;122694;-77
2023/11/29 02:55:47;;;;;;;9.95;5.60;;;;;;;4.74;61.22;100169.06;4926804;28;123848;-76
2023/11/29 02:58:14;;;;;;;10.30;6.18;;;;;;;4.74;61.25;100174.28;4937909;28;114403;-77
2023/11/29 03:00:42;;;;;;;9.32;5.43;;;;;;;4.74;61.59;100161.19;4927304;28;113957;-77
2023/11/29 03:03:09;;;;;;;9.55;5.80;;;;;;;4.75;61.60;100155.03;4941944;28;123271;-76
2023/11/29 03:05:36;;;;;;;9.88;5.15;;;;;;;4.75;61.32;100157.66;4939964;28;121999;-77
2023/11/29 03:08:04;;;;;;;9.35;5.40;;;;;;;4.76;61.61;100151.50;4925193;28;114137;-77
2023/11/29 03:10:31;;;;;;;9.30;5.35;;;;;;;4.76;61.26;100130.50;4924093;28;113929;-77
2023/11/29 03:12:59;;;;;;;9.15;5.03;;;;;;;4.78;61.68;100128.69;4927255;28;123957;-76
2023/11/29 03:15:26;;;;;;;9.82;5.25;;;;;;;4.80;61.76;100121.66;4940540;28;123137;-77
2023/11/29 03:17:53;;;;;;;8.68;4.88;;;;;;;4.84;61.47;100128.50;4945588;28;115312;-77
2023/11/29 03:20:20;;;;;;;8.55;5.00;;;;;;;4.85;61.75;100114.47;4924388;28;113591;-77
2023/11/29 03:22:48;;;;;;;8.88;4.80;;;;;;;4.86;61.70;100121.44;4922527;28;123599;-77
2023/11/29 03:25:15;;;;;;;11.15;4.60;;;;;;;4.86;61.68;100110.94;4927912;28;123279;-77
2023/11/29 03:27:42;;;;;;;10.18;4.57;;;;;;;4.87;61.70;100107.41;4915210;28;113562;-77
2023/11/29 03:30:10;;;;;;;8.93;4.47;;;;;;;4.87;61.60;100112.66;4930147;28;113783;-77
2023/11/29 03:32:37;;;;;;;8.27;4.45;;;;;;;4.88;61.56;100093.38;4918587;28;124338;-77
2023/11/29 03:35:05;;;;;;;7.18;4.28;;;;;;;4.90;61.32;100090.72;4943813;28;122469;-77
2023/11/29 03:37:32;;;;;;;8.73;4.45;;;;;;;4.90;61.79;100089.84;4918293;28;114672;-77
2023/11/29 03:40:00;;;;;;;7.53;4.18;;;;;;;4.90;61.71;100079.34;4922902;28;112950;-77
2023/11/29 03:42:27;;;;;;;5.50;3.72;;;;;;;4.91;61.89;100087.16;4940385;28;123198;-77
2023/11/29 03:44:54;;;;;;;5.82;3.92;;;;;;;4.92;61.72;100072.31;4941649;28;123850;-77
2023/11/29 03:47:21;;;;;;;7.88;4.28;;;;;;;4.93;61.79;100076.63;4924916;28;115080;-77
2023/11/29 03:49:49;;;;;;;6.93;3.75;;;;;;;4.93;61.85;100079.25;4912893;28;114099;-77
2023/11/29 03:52:19;;;;;;;7.28;3.85;;;;;;;4.94;61.84;100065.25;4940305;28;124929;-77
2023/11/29 03:54:46;;;;;;;6.28;3.88;;;;;;;4.95;61.90;100056.44;4941936;28;126081;-77
2023/11/29 03:57:13;;;;;;;7.57;4.00;;;;;;;4.95;61.69;100059.06;4926658;28;114283;-77
2023/11/29 03:59:41;;;;;;;7.13;4.30;;;;;;;4.96;61.83;100058.16;4936948;28;113073;-77
2023/11/29 04:02:08;;;;;;;5.93;3.58;;;;;;;4.95;61.61;100045.94;4921514;28;124017;-75
2023/11/29 04:04:38;;;;;;;6.75;4.00;;;;;;;4.95;61.70;100040.69;4937983;28;123625;-78
2023/11/29 04:07:05;;;;;;;7.63;3.67;;;;;;;4.96;61.67;100047.66;4930697;28;112498;-78
2023/11/29 04:09:32;;;;;;;7.43;3.88;;;;;;;4.97;61.66;100033.63;4939836;28;113166;-77
2023/11/29 04:11:59;;;;;;;6.63;3.70;;;;;;;4.98;62.00;100035.34;4934408;28;122897;-77
2023/11/29 04:14:27;;;;;;;5.47;3.75;;;;;;;4.99;61.79;100043.19;4935437;28;122293;-78
2023/11/29 04:16:54;;;;;;;5.25;3.83;;;;;;;4.99;61.78;100037.94;4923552;28;114733;-78
2023/11/29 04:19:22;;;;;;;5.78;3.90;;;;;;;4.99;61.71;100042.28;4939242;28;112483;-78
2023/11/29 04:21:50;;;;;;;7.25;4.03;;;;;;;4.99;61.70;100052.78;4939196;28;123511;-78
2023/11/29 04:24:17;;;;;;;6.78;3.90;;;;;;;5.00;62.01;100054.53;4924041;28;124154;-78
2023/11/29 04:26:44;;;;;;;8.48;4.40;;;;;;;5.00;62.15;100049.28;4916503;28;114197;-78
2023/11/29 04:29:11;;;;;;;5.88;3.78;;;;;;;5.02;62.12;100053.53;4924080;28;113617;-78
2023/11/29 04:31:39;;;;;;;8.82;4.47;;;;;;;5.04;62.08;100045.63;4935671;28;124386;-78
2023/11/29 04:34:07;;;;;;;7.18;4.00;;;;;;;5.04;61.99;100035.13;4926931;28;123607;-78
2023/11/29 04:36:50;;;;;;;7.13;4.20;;;;;;;5.06;62.03;100030.69;4940059;28;115143;-77
2023/11/29 04:39:18;;;;;;;6.03;3.70;;;;;;;5.08;62.02;100026.22;4924205;28;114947;-78
2023/11/29 04:41:46;;;;;;;5.20;3.38;;;;;;;5.08;62.13;100026.22;4926138;28;124353;-78
2023/11/29 04:44:14;;;;;;;6.18;3.78;;;;;;;5.09;62.20;100014.84;4919359;28;122987;-78
2023/11/29 04:46:42;;;;;;;10.05;4.18;;;;;;;5.09;61.91;100017.47;4922037;28;112793;-78
2023/11/29 04:49:10;;;;;;;7.43;3.95;;;;;;;5.10;62.27;100006.03;4921011;28;113909;-78
2023/11/29 04:51:38;;;;;;;9.88;4.45;;;;;;;5.11;62.25;100005.13;4919541;28;124142;-78
2023/11/29 04:54:05;;;;;;;7.78;4.35;;;;;;;5.12;61.98;100011.22;4934795;28;124304;-78
2023/11/29 04:56:32;;;;;;;7.57;4.20;;;;;;;5.11;61.98;99999.88;4922035;28;114207;-78
2023/11/29 04:59:00;;;;;;;8.57;4.32;;;;;;;5.11;62.41;99994.63;4924931;28;114433;-78
2023/11/29 05:01:27;;;;;;;9.18;3.90;;;;;;;5.14;62.27;99999.78;4920699;28;124491;-77
2023/11/29 05:03:54;;;;;;;6.57;3.60;;;;;;;5.15;62.26;100005.88;4921444;28;124013;-78
2023/11/29 05:06:22;;;;;;;6.72;3.53;;;;;;;5.15;62.47;100001.47;4933972;28;113500;-78
2023/11/29 05:08:49;;;;;;;11.02;4.43;;;;;;;5.16;62.05;100003.22;4936657;28;113988;-78
2023/11/29 05:11:16;;;;;;;10.07;3.95;;;;;;;5.19;62.08;100013.56;4925283;28;123207;-78
2023/11/29 05:13:44;;;;;;;7.35;3.97;;;;;;;5.19;62.49;100008.31;4921002;28;124592;-78
2023/11/29 05:20:17;;;;;;;6.40;3.35;;;;;;;5.20;62.45;100002.19;4920696;28;114677;-76
2023/11/29 05:22:44;;;;;;;8.00;3.88;;;;;;;5.20;62.19;100002.19;4934577;28;123684;-78
2023/11/29 05:25:12;;;;;;;5.68;3.20;;;;;;;5.22;62.06;99996.88;4919224;28;124117;-78
2023/11/29 05:27:39;;;;;;;7.75;4.00;;;;;;;5.22;62.10;99987.22;4916174;28;115071;-78
2023/11/29 05:30:10;;;;;;;6.72;3.55;;;;;;;5.25;62.55;99987.13;4923598;28;114592;-77
2023/11/29 05:32:37;;;;;;;7.70;4.03;;;;;;;5.25;62.36;100000.25;4926456;28;124181;-78
2023/11/29 05:35:05;;;;;;;8.15;3.78;;;;;;;5.28;62.33;99995.78;4916573;28;123105;-77
2023/11/29 05:37:32;;;;;;;6.57;3.88;;;;;;;5.29;62.30;100002.75;4919058;28;114178;-78
2023/11/29 05:39:59;;;;;;;9.50;3.88;;;;;;;5.29;62.23;99993.09;4922534;28;113879;-78
2023/11/29 05:42:26;;;;;;;8.60;4.07;;;;;;;5.30;62.37;99988.72;4904170;28;123022;-78
2023/11/29 05:44:54;;;;;;;5.53;3.22;;;;;;;5.28;62.57;99978.28;4932321;28;123860;-77
2023/11/29 05:47:22;;;;;;;7.55;3.72;;;;;;;5.28;62.13;99980.03;4917514;28;113895;-78
2023/11/29 05:49:49;;;;;;;7.50;3.63;;;;;;;5.25;62.23;99981.88;4919495;28;113782;-78
2023/11/29 05:52:18;;;;;;;6.90;3.53;;;;;;;5.23;62.25;99978.41;4919070;28;123486;-78
2023/11/29 05:54:46;;;;;;;5.35;3.28;;;;;;;5.22;62.39;99986.38;4921200;28;123908;-79
2023/11/29 05:57:13;;;;;;;6.13;3.35;;;;;;;5.20;62.38;99994.31;4936093;28;113908;-79
2023/11/29 05:59:41;;;;;;;6.47;3.85;;;;;;;5.22;62.50;99987.22;4920612;28;114894;-79
2023/11/29 06:02:08;;;;;;;6.10;3.40;;;;;;;5.23;62.45;99999.41;4939328;28;124544;-78
2023/11/29 06:04:35;;;;;;;7.45;3.35;;;;;;;5.24;62.65;100000.31;4916736;28;124308;-78
2023/11/29 06:07:03;;;;;;;8.45;3.75;;;;;;;5.25;62.21;99996.75;4916627;28;114086;-79
2023/11/29 06:09:31;;;;;;;10.32;3.72;;;;;;;5.24;61.96;99990.66;4939878;28;114373;-77
2023/11/29 06:11:58;;;;;;;5.68;3.60;;;;;;;5.24;62.57;100001.16;4940825;28;123907;-77
2023/11/29 06:14:26;;;;;;;7.40;3.97;;;;;;;5.23;62.33;99994.16;4930534;28;123604;-78
2023/11/29 06:16:53;;;;;;;6.85;3.53;;;;;;;5.26;62.39;99994.06;4922523;28;114699;-79
2023/11/29 06:19:21;;;;;;;7.70;3.90;;;;;;;5.25;62.36;99974.00;4941814;28;113316;-79
2023/11/29 06:21:48;;;;;;;4.20;2.95;;;;;;;5.27;62.39;99973.91;4937613;28;125049;-79
2023/11/29 06:24:15;;;;;;;7.05;3.70;;;;;;;5.29;62.53;99972.09;4923286;28;123830;-78
2023/11/29 06:26:42;;;;;;;8.20;3.38;;;;;;;5.31;62.59;99974.66;4942823;28;113278;-79
2023/11/29 06:29:09;;;;;;;5.32;3.40;;;;;;;5.31;62.83;99974.66;4931721;28;113981;-79
2023/11/29 06:31:37;;;;;;;7.38;4.30;;;;;;;5.34;62.60;99979.81;4920812;28;123225;-79
2023/11/29 06:34:07;;;;;;;6.72;3.20;;;;;;;5.36;62.64;99977.97;4933589;28;123783;-78
2023/11/29 06:36:37;;;;;;;6.20;3.25;;;;;;;5.37;62.39;99974.41;4944270;28;113658;-78
2023/11/29 06:39:05;;;;;;;5.93;3.42;;;;;;;5.39;62.82;99977.88;4930922;28;112042;-79
2023/11/29 06:41:32;;;;;;;7.75;4.00;;;;;;;5.41;63.07;99981.28;4944505;28;123639;-79
2023/11/29 06:43:59;;;;;;;5.88;3.47;;;;;;;5.43;62.80;99974.22;4933209;28;124619;-79
2023/11/29 06:46:26;;;;;;;8.70;3.47;;;;;;;5.45;62.73;99988.13;4932456;28;113938;-79
2023/11/29 06:48:53;;;;;;;6.05;3.50;;;;;;;5.46;62.96;99979.31;4931336;28;115771;-79
2023/11/29 06:51:21;;;;;;;8.23;4.10;;;;;;;5.50;62.84;99980.94;4933004;28;124045;-78
2023/11/29 06:53:48;;;;;;;6.30;4.18;;;;;;;5.52;62.95;99978.25;4945153;28;125005;-79
2023/11/29 06:56:15;;;;;;;6.93;4.18;;;;;;;5.54;62.87;99992.16;4956711;28;115033;-79
2023/11/29 06:58:42;;;;;;;8.15;4.53;;;;;;;5.54;62.96;99993.03;4931187;28;113484;-78
2023/11/29 07:01:10;;;;;;;6.70;4.07;;;;;;;5.55;62.86;99984.22;4948487;28;122171;-79
2023/11/29 07:03:37;;;;;;;6.95;4.68;;;;;;;5.55;62.71;99994.75;4938348;28;123685;-78
2023/11/29 07:06:05;;;;;;;7.03;4.35;;;;;;;5.58;62.76;100001.66;4938201;28;115242;-79
2023/11/29 07:08:33;;;;;;;7.32;4.18;;;;;;;5.57;62.43;99997.31;4935453;28;114144;-79
2023/11/29 07:11:04;;;;;;;6.97;4.43;;;;;;;5.58;62.88;99999.88;4933977;28;123554;-79
2023/11/29 07:13:31;;;;;;;6.22;4.13;;;;;;;5.58;62.74;100015.66;4941122;28;124030;-79
2023/11/29 07:15:59;;;;;;;6.47;3.80;;;;;;;5.58;62.66;100007.78;4957201;28;113967;-79
2023/11/29 07:18:30;;;;;;;6.35;3.92;;;;;;;5.58;63.07;100010.41;4929546;28;112328;-79
2023/11/29 07:20:57;;;;;;;5.65;3.50;;;;;;;5.59;62.92;100006.84;4937287;28;123089;-78
2023/11/29 07:23:24;;;;;;;5.65;3.40;;;;;;;5.61;62.87;100020.78;4926867;28;124363;-79
2023/11/29 07:25:52;;;;;;;6.88;3.65;;;;;;;5.60;62.87;100026.94;4929573;28;114246;-79
2023/11/29 07:28:19;;;;;;;7.30;3.40;;;;;;;5.61;63.00;100031.31;4927126;28;113779;-79
2023/11/29 07:30:47;;;;;;;4.88;2.92;;;;;;;5.60;62.90;100045.34;4933755;28;126281;-79
2023/11/29 07:33:14;;;;;;;4.80;3.08;;;;;;;5.62;62.77;100043.50;4932536;28;125324;-79
2023/11/29 07:35:41;;;;;;;7.53;3.38;;;;;;;5.63;62.61;100039.97;4937945;28;112863;-79
2023/11/29 07:38:08;;;;;;;6.70;3.20;;;;;;;5.63;62.86;100045.22;4939792;28;113967;-79
2023/11/29 07:40:37;;;;;;;8.68;2.92;;;;;;;5.63;62.78;100050.50;4937590;28;124076;-79
2023/11/29 07:43:04;;;;;;;4.95;2.80;;;;;;;5.64;62.89;100049.56;4933795;28;122236;-79
2023/11/29 07:45:31;;;;;;;6.32;3.05;;;;;;;5.64;62.72;100057.44;4932095;28;113463;-79
2023/11/29 07:47:58;;;;;;;4.70;2.60;;;;;;;5.66;63.11;100060.84;4945929;28;113228;-79
2023/11/29 07:50:26;;;;;;;5.78;2.63;;;;;;;5.66;62.66;100066.13;4943417;28;124050;-78
2023/11/29 07:52:53;;;;;;;4.93;2.28;;;;;;;5.68;62.81;100073.09;4941421;28;123073;-79
2023/11/29 07:55:20;;;;;;;5.40;2.22;;;;;;;5.69;62.96;100077.41;4925606;28;114397;-79
2023/11/29 07:57:47;;;;;;;3.10;1.95;;;;;;;5.70;62.83;100071.25;4931426;28;113390;-79
2023/11/29 08:00:15;;;;;;;3.47;2.10;;;;;;;5.74;62.87;100083.38;4929568;28;123066;-78
2023/11/29 08:02:43;;;;;;;4.90;1.85;;;;;;;5.75;62.80;100075.44;4930928;28;124051;-79
2023/11/29 08:05:10;;;;;;;4.05;1.70;;;;;;;5.77;63.17;100072.75;4940177;28;114630;-79
2023/11/29 08:07:38;;;;;;;3.90;1.48;;;;;;;5.77;62.92;100083.25;4939076;28;115327;-79
2023/11/29 08:10:57;;;;;;;3.45;1.60;;;;;;;5.77;62.89;100088.53;4934076;28;124198;-79
2023/11/29 08:13:42;;;;;;;2.25;1.38;;;;;;;5.76;62.77;100092.91;4950491;28;123252;-79
2023/11/29 08:16:16;;;;;;;3.58;1.65;;;;;;;5.75;62.81;100085.09;4931530;28;114072;-79
2023/11/29 08:18:45;;;;;;;2.70;1.50;;;;;;;5.76;63.05;100092.03;4944222;28;113008;-79
2023/11/29 08:21:13;;;;;;;2.30;1.20;;;;;;;5.76;62.87;100086.78;4946342;28;124137;-79
2023/11/29 08:23:40;;;;;;;3.58;1.13;;;;;;;5.76;62.72;100092.91;4943026;28;122762;-79
2023/11/29 08:26:07;;;;;;;3.50;1.45;;;;;;;5.76;62.90;100105.19;4928512;28;114558;-79
2023/11/29 08:28:34;;;;;;;2.67;1.33;;;;;;;5.78;62.61;100112.13;4921808;28;114367;-79
2023/11/29 08:31:01;;;;;;;2.47;1.38;;;;;;;5.82;62.96;100112.84;4921568;28;122882;-79
2023/11/29 08:33:30;;;;;;;2.25;1.58;;;;;;;5.83;62.75;100104.03;4923271;28;124387;-79
2023/11/29 08:35:57;;;;;;;2.03;1.30;;;;;;;5.86;63.11;100114.47;4922966;28;114318;-79
2023/11/29 08:38:25;;;;;;;2.75;1.42;;;;;;;5.88;63.00;100117.88;4941432;28;113048;-79
2023/11/29 08:40:52;;;;;;;4.75;1.20;;;;;;;5.92;63.05;100129.97;4927696;28;124055;-79
2023/11/29 08:43:20;;;;;;;4.82;1.33;;;;;;;5.95;62.56;100129.91;4930685;28;125511;-79
2023/11/29 08:45:51;;;;;;;5.07;1.27;;;;;;;5.97;63.31;100133.34;4930125;28;115540;-79
2023/11/29 08:48:18;;;;;;;2.83;0.98;;;;;;;6.02;63.21;100130.53;4922700;28;114993;-79
2023/11/29 08:50:49;;;;;;;2.85;1.40;;;;;;;6.07;63.21;100139.09;4933438;28;125002;-79
2023/11/29 08:53:17;;;;;;;3.05;1.30;;;;;;;6.09;63.39;100136.41;4933231;28;122727;-79
2023/11/29 08:55:53;;;;;;;3.03;1.27;;;;;;;6.13;62.99;100125.72;4940725;28;113882;-79
2023/11/29 08:58:20;;;;;;;2.92;1.27;;;;;;;6.15;63.02;100123.03;4949990;28;113402;-79
2023/11/29 09:00:47;;;;;;;1.83;1.17;;;;;;;6.17;62.82;100121.19;4937514;28;124045;-79
2023/11/29 09:03:14;;;;;;;4.20;1.58;;;;;;;6.16;62.65;100122.09;4960083;28;124454;-79
2023/11/29 09:05:41;;;;;;;3.58;1.33;;;;;;;6.17;62.64;100134.34;4939479;28;113190;-79
2023/11/29 09:08:09;;;;;;;3.10;1.20;;;;;;;6.15;62.78;100130.91;4936256;28;113530;-79
2023/11/29 09:10:38;;;;;;;2.00;1.23;;;;;;;6.17;62.87;100155.38;4953379;28;124079;-79
2023/11/29 09:13:06;;;;;;;2.72;1.30;;;;;;;6.18;62.93;100146.59;4938103;28;123641;-79
2023/11/29 09:15:33;;;;;;;4.25;1.42;;;;;;;6.19;62.85;100169.31;4928670;28;115202;-79
2023/11/29 09:18:01;;;;;;;2.08;1.30;;;;;;;6.19;62.84;100196.47;4943444;28;114369;-79
2023/11/29 09:20:28;;;;;;;1.95;1.23;;;;;;;6.17;62.59;100213.22;4933456;28;124182;-79
2023/11/29 09:22:55;;;;;;;2.65;1.00;;;;;;;6.08;62.52;100208.28;4920353;28;123527;-79
2023/11/29 09:25:22;;;;;;;2.20;0.80;;;;;;;5.98;62.54;100213.88;4931153;28;114341;-79
2023/11/29 09:27:50;;;;;;;2.58;0.77;;;;;;;5.88;62.65;100212.50;4954376;28;111841;-79
2023/11/29 09:30:17;;;;;;;2.53;1.00;;;;;;;5.81;62.23;100210.97;4939106;28;123216;-78
2023/11/29 09:32:44;;;;;;;2.83;1.15;;;;;;;5.74;62.24;100204.22;4931268;28;124557;-79
2023/11/29 09:35:11;;;;;;;2.15;0.90;;;;;;;5.70;62.52;100215.75;4931951;28;115312;-79
2023/11/29 09:37:38;;;;;;;1.35;0.75;;;;;;;5.70;62.60;100213.13;4922809;28;114856;-79
2023/11/29 09:40:06;;;;;;;2.92;0.80;;;;;;;5.69;62.84;100211.41;4926819;28;124291;-79
2023/11/29 09:42:34;;;;;;;1.02;0.80;;;;;;;5.71;62.72;100212.19;4912568;28;123540;-79
2023/11/29 09:45:09;;;;;;;1.40;0.90;;;;;;;5.73;62.85;100213.03;4915662;28;114474;-79
2023/11/29 09:47:38;;;;;;;1.40;1.08;;;;;;;5.75;62.65;100221.72;4921177;28;113884;-78
2023/11/29 09:50:06;;;;;;;7.07;1.60;;;;;;;5.77;62.80;100219.88;4945788;28;124242;-78
2023/11/29 09:52:33;;;;;;;5.85;2.10;;;;;;;5.78;62.73;100218.97;4920727;28;123684;-79
2023/11/29 09:55:00;;;;;;;1.83;1.15;;;;;;;5.80;62.91;100219.75;4926688;28;114669;-78
2023/11/29 09:57:28;;;;;;;1.98;1.20;;;;;;;5.81;62.88;100216.25;4923401;28;113898;-78
2023/11/29 09:59:55;;;;;;;2.78;1.20;;;;;;;5.82;62.78;100217.94;4926326;28;124232;-79
2023/11/29 10:02:23;;;;;;;1.10;0.80;;;;;;;5.83;62.87;100219.66;4929596;28;123856;-79
2023/11/29 10:04:50;;;;;;;3.45;1.17;;;;;;;5.84;62.96;100226.66;4929022;28;114023;-78
2023/11/29 10:07:17;;;;;;;4.50;1.20;;;;;;;5.89;63.02;100224.69;4924048;28;113197;-78
2023/11/29 10:09:45;;;;;;;3.10;0.93;;;;;;;5.95;62.84;100229.78;4934181;28;123208;-78
2023/11/29 10:12:13;;;;;;;2.63;1.10;;;;;;;6.00;62.85;100233.09;4947757;28;124479;-79
2023/11/29 10:14:40;;;;;;;2.00;1.10;;;;;;;6.05;62.74;100225.06;4932684;28;113821;-78
2023/11/29 10:17:16;;;;;;;1.30;1.08;;;;;;;6.09;62.92;100236.31;4944305;28;114111;-78
2023/11/29 10:19:46;;;;;;;;;;;;;;;6.13;62.91;100227.41;4932082;28;124001;-79
2023/11/29 10:22:17;;;;;;;3.42;1.10;;;;;;;6.16;62.96;100227.25;4931167;28;124546;-79
2023/11/29 10:24:44;;;;;;;2.50;1.20;;;;;;;6.19;62.93;100227.16;4937646;28;115406;-78
2023/11/29 10:27:12;;;;;;;2.42;1.30;;;;;;;6.24;62.78;100225.22;4930075;28;113914;-79
2023/11/29 10:29:39;;;;;;;2.95;1.38;;;;;;;6.29;62.98;100212.78;4924588;28;124177;-79
2023/11/29 10:32:08;;;;;;;2.85;1.50;;;;;;;6.35;63.31;100217.81;4914219;28;123678;-78
2023/11/29 10:34:36;;;;;;;7.03;1.50;;;;;;;6.40;63.29;100209.72;4930302;28;112231;-79
2023/11/29 10:37:05;;;;;;;3.58;1.65;;;;;;;6.47;62.98;100218.25;4932540;28;113354;-79
2023/11/29 10:39:33;;;;;;;2.72;1.30;;;;;;;6.54;63.36;100211.84;4933671;28;122859;-79
2023/11/29 10:42:05;;;;;;;5.20;1.52;;;;;;;6.61;63.21;100208.03;4936972;28;123949;-79
2023/11/29 10:44:40;;;;;;;2.28;1.38;;;;;;;6.67;63.34;100202.56;4950336;28;115685;-79
2023/11/29 10:47:13;;;;;;;2.53;1.53;;;;;;;6.74;63.48;100201.41;4949824;28;113687;-79
2023/11/29 10:50:03;;;;;;;3.72;1.65;;;;;;;6.83;62.98;100197.53;4933720;28;122524;-79
2023/11/29 10:52:30;;;;;;;3.03;1.60;;;;;;;6.90;63.15;100198.16;4925610;28;122495;-79
2023/11/29 10:54:57;;;;;;;4.05;1.80;;;;;;;6.96;63.39;100203.16;4927732;28;114817;-79
2023/11/29 10:57:31;;;;;;;3.15;1.30;;;;;;;7.03;63.40;100204.63;4936716;28;113418;-79
2023/11/29 11:00:06;;;;;;;3.20;1.40;;;;;;;7.09;63.30;100204.38;4936001;28;123721;-79
2023/11/29 11:02:33;;;;;;;4.00;1.73;;;;;;;7.17;63.35;100212.81;4934379;28;124217;-79
2023/11/29 11:05:05;;;;;;;3.00;1.48;;;;;;;7.21;63.23;100203.88;4934816;28;114990;-79
2023/11/29 11:07:41;;;;;;;4.75;2.20;;;;;;;7.26;63.43;100205.47;4931177;28;114484;-79
2023/11/29 11:10:11;;;;;;;5.82;1.60;;;;;;;7.33;63.11;100212.19;4940625;28;123835;-79
2023/11/29 11:12:40;;;;;;;7.53;1.60;;;;;;;7.38;63.23;100211.06;4930699;28;124170;-79
2023/11/29 11:15:20;;;;;;;6.22;1.52;;;;;;;7.47;63.63;100215.09;4924152;28;114905;-79
2023/11/29 11:18:00;;;;;;;4.47;1.50;;;;;;;7.56;63.23;100212.06;4913929;28;114111;-79
2023/11/29 11:20:50;;;;;;;4.03;1.48;;;;;;;7.65;63.15;100215.22;4929647;28;124547;-79
2023/11/29 11:23:22;;;;;;;2.70;1.55;;;;;;;7.72;63.33;100208.75;4917747;28;124361;-79
2023/11/29 11:25:56;;;;;;;3.45;1.20;;;;;;;7.81;63.41;100211.00;4941818;28;113611;-78
2023/11/29 11:28:31;;;;;;;4.25;1.27;;;;;;;7.87;63.29;100216.00;4920504;28;113905;-79
2023/11/29 11:31:06;;;;;;;2.20;1.20;;;;;;;7.92;63.21;100216.66;4922292;28;125780;-79
2023/11/29 11:34:00;;;;;;;3.60;1.50;;;;;;;7.98;63.30;100221.66;4946088;28;123440;-79
2023/11/29 11:36:27;;;;;;;4.38;1.27;;;;;;;8.08;63.28;100221.25;4921878;28;114325;-79